Plancius — PBQK — position and weather

sailwx.info

Track history (hours):
 
Tides and Currents Weather Stations Pressure Air Temp Water Temp Dewpoint Dewpoint Depression Visibility Wind Speed Wind Dir Waves Ship Positions

Plancius

Last reported at 2018-May-27 05:22 UTC. Time now 2018-Jun-22 07:40 UTC.
Position N 59°30' W 001°40'.
Warning: this ship's position is 26 days out of date.

Length 90 m; draft 5.2 m.

Type: Passenger vessel. MMSI: 246573000.

Date/timePositionNaut miles runAvg speedWind from/ knotsBaromVisibWave heightAir tempDewpointWater temp
2018-May-27 05:22N 59°30' W 001°40'2 4.5
2018-May-27 04:53N 59°32' W 001°36'0 0.3
2018-May-27 04:11N 59°32' W 001°36'1 2.4
2018-May-27 03:54N 59°32' W 001°34'4 4.6
2018-May-27 03:06N 59°28' W 001°37'2 4.8
2018-May-27 02:41N 59°27' W 001°39'1 4.5
2018-May-27 02:30N 59°26' W 001°40'3 4.6
2018-May-27 01:56N 59°24' W 001°43'2 5.0
2018-May-27 01:30N 59°22' W 001°45'3 5.1
2018-May-27 01:00N 59°20' W 001°48'2 4.8
2018-May-27 00:30N 59°18' W 001°50'3 4.7
2018-May-26 23:58N 59°15' W 001°53'3 4.8
2018-May-26 23:26N 59°13' W 001°55'3 5.5
2018-May-26 22:51N 59°10' W 001°58'2 5.2
2018-May-26 22:30N 59°09' W 001°60'2 3.4
2018-May-26 21:59N 59°07' W 002°01'2 4.5
2018-May-26 21:30N 59°05' W 002°03'2 4.7
2018-May-26 21:00N 59°03' W 002°06'2 4.7
2018-May-26 20:30N 59°01' W 002°08'471 9.2
2018-May-24 17:23N 51°48' E 003°17'4 8.9
2018-May-24 16:59N 51°45' E 003°13'3 5.6
2018-May-24 16:29N 51°43' E 003°16'5 9.7
2018-May-24 16:00N 51°39' E 003°20'5 9.9
2018-May-24 15:30N 51°35' E 003°24'5 9.2
2018-May-24 15:00N 51°31' E 003°27'510.5
2018-May-24 14:30N 51°27' E 003°33'5 9.7
2018-May-24 14:00N 51°27' E 003°41'1 1.2
2018-May-24 13:30N 51°28' E 003°41'0 0.1
2018-May-24 08:53N 51°28' E 003°42'0 0.0
2018-May-24 08:06N 51°28' E 003°42'0 0.0
2018-May-24 07:56N 51°28' E 003°42'0 0.0
2018-May-23 16:21N 51°28' E 003°42'0 0.0
2018-May-23 03:08N 51°28' E 003°42'0 0.0
2018-May-23 02:44N 51°28' E 003°42'0 0.0
2018-May-23 02:17N 51°28' E 003°42'0 0.0
2018-May-23 01:14N 51°28' E 003°42'0 0.0
2018-May-23 00:50N 51°28' E 003°42'0 0.0
2018-May-23 00:08N 51°28' E 003°42'0 0.0
2018-May-22 23:38N 51°28' E 003°42'0 0.0
2018-May-22 18:05N 51°28' E 003°42'0 0.0
2018-May-22 17:53N 51°28' E 003°42'0 0.0
2018-May-22 17:20N 51°28' E 003°42'0 0.0
2018-May-22 13:29N 51°28' E 003°42'0 0.0
2018-May-22 11:25N 51°28' E 003°42'0 0.0
2018-May-22 10:49N 51°28' E 003°42'0 0.0
2018-May-22 06:28N 51°28' E 003°42'0 0.0
2018-May-22 03:13N 51°28' E 003°42'0 0.0
2018-May-22 02:55N 51°28' E 003°42'0 0.0
2018-May-22 02:10N 51°28' E 003°42'0 0.0
2018-May-22 01:55N 51°28' E 003°42'0 0.0
2018-May-22 01:22N 51°28' E 003°42'0 0.0
2018-May-22 00:55N 51°28' E 003°42'0 0.0
2018-May-22 00:16N 51°28' E 003°42'0 0.0
2018-May-21 23:58N 51°28' E 003°42'0 0.0
2018-May-21 23:22N 51°28' E 003°42'0 0.0
2018-May-21 22:07N 51°28' E 003°42'0 0.0
2018-May-21 12:49N 51°28' E 003°42'0 0.0
2018-May-21 12:28N 51°28' E 003°42'0 0.0
2018-May-21 09:46N 51°28' E 003°42'0 0.0
2018-May-21 04:40N 51°28' E 003°42'0 0.0
2018-May-21 01:58N 51°28' E 003°42'0 0.0
2018-May-20 23:22N 51°28' E 003°42'0 0.0
2018-May-20 21:01N 51°28' E 003°42'0 0.0
2018-May-20 20:43N 51°28' E 003°42'0 0.0
2018-May-20 19:13N 51°28' E 003°42'0 0.0
2018-May-20 02:40N 51°28' E 003°42'0 0.0
2018-May-20 02:28N 51°28' E 003°42'0 0.0
2018-May-19 22:58N 51°28' E 003°42'0 0.0
2018-May-19 17:04N 51°28' E 003°42'0 0.1
2018-May-19 16:40N 51°28' E 003°42'0 0.1
2018-May-19 16:04N 51°28' E 003°42'0 0.0
2018-May-19 15:46N 51°28' E 003°42'0 0.0
2018-May-19 15:07N 51°28' E 003°42'0 0.0
2018-May-19 14:58N 51°28' E 003°42'0 0.0
2018-May-19 14:28N 51°28' E 003°42'0 0.0
2018-May-19 13:55N 51°28' E 003°42'0 0.0
2018-May-19 13:22N 51°28' E 003°42'0 0.0
2018-May-19 12:52N 51°28' E 003°42'0 0.0
2018-May-19 12:22N 51°28' E 003°42'0 0.0
2018-May-19 11:58N 51°28' E 003°42'0 0.0
2018-May-19 11:22N 51°28' E 003°42'0 0.0
2018-May-19 10:46N 51°28' E 003°42'0 0.0
2018-May-19 10:22N 51°28' E 003°42'0 0.0
2018-May-19 09:49N 51°28' E 003°42'0 0.0
2018-May-19 09:22N 51°28' E 003°42'0 0.0
2018-May-19 08:55N 51°28' E 003°42'0 0.0
2018-May-19 08:22N 51°28' E 003°42'0 0.0
2018-May-19 07:58N 51°28' E 003°42'0 0.0
2018-May-19 07:22N 51°28' E 003°42'0 0.0
2018-May-19 06:55N 51°28' E 003°42'0 0.0
2018-May-19 06:04N 51°28' E 003°42'0 0.0
2018-May-19 05:58N 51°28' E 003°42'0 0.0
2018-May-19 05:25N 51°28' E 003°42'0 0.0
2018-May-19 04:43N 51°28' E 003°42'0 0.0
2018-May-19 03:34N 51°28' E 003°42'0 0.0
2018-May-19 03:07N 51°28' E 003°42'0 0.0
2018-May-19 02:16N 51°28' E 003°42'0 0.0
2018-May-19 01:55N 51°28' E 003°42'0 0.0
2018-May-19 01:16N 51°28' E 003°42'0 0.0
2018-May-19 00:55N 51°28' E 003°42'0 0.0
2018-May-19 00:28N 51°28' E 003°42'0 0.0
2018-May-18 23:55N 51°28' E 003°42'0 0.0
2018-May-18 23:28N 51°28' E 003°42'0 0.0
2018-May-18 22:55N 51°28' E 003°42'0 0.0
2018-May-18 22:28N 51°28' E 003°42'0 0.0
2018-May-18 21:52N 51°28' E 003°42'0 0.0
2018-May-18 21:28N 51°28' E 003°42'0 0.0
2018-May-18 20:55N 51°28' E 003°42'0 0.0
2018-May-18 20:25N 51°28' E 003°42'0 0.0
2018-May-18 19:58N 51°28' E 003°42'0 0.0
2018-May-18 19:25N 51°28' E 003°42'0 0.0
2018-May-18 18:58N 51°28' E 003°42'0 0.0
2018-May-18 18:25N 51°28' E 003°42'0 0.0
2018-May-18 17:58N 51°28' E 003°42'0 0.0
2018-May-18 17:25N 51°28' E 003°42'0 0.0
2018-May-18 16:55N 51°28' E 003°42'0 0.0
2018-May-18 16:25N 51°28' E 003°42'0 0.0
2018-May-18 15:55N 51°28' E 003°42'0 0.0
2018-May-18 15:28N 51°28' E 003°42'0 0.0
2018-May-18 14:31N 51°28' E 003°42'0 0.0
2018-May-18 14:25N 51°28' E 003°42'0 0.0
2018-May-18 13:37N 51°28' E 003°42'0 0.0
2018-May-18 13:22N 51°28' E 003°42'0 0.0
2018-May-18 12:46N 51°28' E 003°42'0 0.0
2018-May-18 12:28N 51°28' E 003°42'0 0.0
2018-May-18 11:43N 51°28' E 003°42'0 0.0
2018-May-18 11:28N 51°28' E 003°42'0 0.0
2018-May-18 10:55N 51°28' E 003°42'0 0.0
2018-May-18 10:25N 51°28' E 003°42'0 0.0
2018-May-18 09:52N 51°28' E 003°42'0 0.0
2018-May-18 09:16N 51°28' E 003°42'0 0.0
2018-May-18 08:58N 51°28' E 003°42'0 0.0
2018-May-18 08:25N 51°28' E 003°42'0 0.0
2018-May-18 07:58N 51°28' E 003°42'0 0.0
2018-May-18 07:28N 51°28' E 003°42'0 0.0
2018-May-18 06:55N 51°28' E 003°42'0 0.0
2018-May-18 06:28N 51°28' E 003°42'0 0.0
2018-May-18 05:55N 51°28' E 003°42'0 0.0
2018-May-18 05:22N 51°28' E 003°42'0 0.0
2018-May-18 04:58N 51°28' E 003°42'0 0.0
2018-May-18 04:28N 51°28' E 003°42'0 0.0
2018-May-18 03:58N 51°28' E 003°42'0 0.0
2018-May-18 03:28N 51°28' E 003°42'0 0.0
2018-May-18 02:55N 51°28' E 003°42'0 0.0
2018-May-18 02:28N 51°28' E 003°42'0 0.0
2018-May-18 01:49N 51°28' E 003°42'0 0.0
2018-May-18 01:28N 51°28' E 003°42'0 0.0
2018-May-18 00:58N 51°28' E 003°42'0 0.0
2018-May-18 00:28N 51°28' E 003°42'0 0.0
2018-May-17 23:58N 51°28' E 003°42'0 0.0
2018-May-17 23:28N 51°28' E 003°42'0 0.0
2018-May-17 22:58N 51°28' E 003°42'0 0.0
2018-May-17 22:28N 51°28' E 003°42'0 0.0
2018-May-17 21:58N 51°28' E 003°42'0 0.0
2018-May-17 21:28N 51°28' E 003°42'0 0.0
2018-May-17 20:58N 51°28' E 003°42'0 0.0
2018-May-17 20:28N 51°28' E 003°42'0 0.0
2018-May-17 19:58N 51°28' E 003°42'0 0.0
2018-May-17 19:28N 51°28' E 003°42'0 0.0
2018-May-17 18:55N 51°28' E 003°42'0 0.0
2018-May-17 18:28N 51°28' E 003°42'0 0.0
2018-May-17 17:58N 51°28' E 003°42'0 0.0
2018-May-17 17:28N 51°28' E 003°42'0 0.0
2018-May-17 16:52N 51°28' E 003°42'0 0.0
2018-May-17 16:28N 51°28' E 003°42'0 0.0
2018-May-17 15:52N 51°28' E 003°42'0 0.0
2018-May-17 15:22N 51°28' E 003°42'0 0.0
2018-May-17 14:55N 51°28' E 003°42'0 0.0
2018-May-17 14:25N 51°28' E 003°42'0 0.0
2018-May-17 13:52N 51°28' E 003°42'0 0.0
2018-May-17 13:22N 51°28' E 003°42'0 0.0
2018-May-17 12:58N 51°28' E 003°42'0 0.0
2018-May-17 12:10N 51°28' E 003°42'0 0.0
2018-May-17 11:55N 51°28' E 003°42'0 0.0
2018-May-17 11:25N 51°28' E 003°42'0 0.0
2018-May-17 10:58N 51°28' E 003°42'0 0.0
2018-May-17 10:28N 51°28' E 003°42'0 0.0
2018-May-17 09:52N 51°28' E 003°42'0 0.0
2018-May-17 09:28N 51°28' E 003°42'0 0.0
2018-May-17 08:58N 51°28' E 003°42'0 0.0
2018-May-17 08:28N 51°28' E 003°42'0 0.0
2018-May-17 07:58N 51°28' E 003°42'0 0.0
2018-May-17 07:28N 51°28' E 003°42'0 0.0
2018-May-17 06:55N 51°28' E 003°42'0 0.0
2018-May-17 06:28N 51°28' E 003°42'0 0.0
2018-May-17 05:52N 51°28' E 003°42'0 0.0
2018-May-17 05:25N 51°28' E 003°42'  
Track history (hours):
 
Tides and Currents Weather Stations Pressure Air Temp Water Temp Dewpoint Dewpoint Depression Visibility Wind Speed Wind Dir Waves Ship Positions

Plancius

Last reported at 2018-May-27 05:22 UTC. Time now 2018-Jun-22 07:40 UTC.
Position N 59°30' W 001°40'.
Warning: this ship's position is 26 days out of date.

Length 90 m; draft 5.2 m.

Type: Passenger vessel. MMSI: 246573000.

Date/timePositionNaut miles runAvg speedWind from/ knotsBaromVisibWave heightAir tempDewpointWater temp
2018-May-27 05:22N 59°30' W 001°40'2 4.5
2018-May-27 04:53N 59°32' W 001°36'0 0.3
2018-May-27 04:11N 59°32' W 001°36'1 2.4
2018-May-27 03:54N 59°32' W 001°34'4 4.6
2018-May-27 03:06N 59°28' W 001°37'2 4.8
2018-May-27 02:41N 59°27' W 001°39'1 4.5
2018-May-27 02:30N 59°26' W 001°40'3 4.6
2018-May-27 01:56N 59°24' W 001°43'2 5.0
2018-May-27 01:30N 59°22' W 001°45'3 5.1
2018-May-27 01:00N 59°20' W 001°48'2 4.8
2018-May-27 00:30N 59°18' W 001°50'3 4.7
2018-May-26 23:58N 59°15' W 001°53'3 4.8
2018-May-26 23:26N 59°13' W 001°55'3 5.5
2018-May-26 22:51N 59°10' W 001°58'2 5.2
2018-May-26 22:30N 59°09' W 001°60'2 3.4
2018-May-26 21:59N 59°07' W 002°01'2 4.5
2018-May-26 21:30N 59°05' W 002°03'2 4.7
2018-May-26 21:00N 59°03' W 002°06'2 4.7
2018-May-26 20:30N 59°01' W 002°08'471 9.2
2018-May-24 17:23N 51°48' E 003°17'4 8.9
2018-May-24 16:59N 51°45' E 003°13'3 5.6
2018-May-24 16:29N 51°43' E 003°16'5 9.7
2018-May-24 16:00N 51°39' E 003°20'5 9.9
2018-May-24 15:30N 51°35' E 003°24'5 9.2
2018-May-24 15:00N 51°31' E 003°27'510.5
2018-May-24 14:30N 51°27' E 003°33'5 9.7
2018-May-24 14:00N 51°27' E 003°41'1 1.2
2018-May-24 13:30N 51°28' E 003°41'0 0.1
2018-May-24 08:53N 51°28' E 003°42'0 0.0
2018-May-24 08:06N 51°28' E 003°42'0 0.0
2018-May-24 07:56N 51°28' E 003°42'0 0.0
2018-May-23 16:21N 51°28' E 003°42'0 0.0
2018-May-23 03:08N 51°28' E 003°42'0 0.0
2018-May-23 02:44N 51°28' E 003°42'0 0.0
2018-May-23 02:17N 51°28' E 003°42'0 0.0
2018-May-23 01:14N 51°28' E 003°42'0 0.0
2018-May-23 00:50N 51°28' E 003°42'0 0.0
2018-May-23 00:08N 51°28' E 003°42'0 0.0
2018-May-22 23:38N 51°28' E 003°42'0 0.0
2018-May-22 18:05N 51°28' E 003°42'0 0.0
2018-May-22 17:53N 51°28' E 003°42'0 0.0
2018-May-22 17:20N 51°28' E 003°42'0 0.0
2018-May-22 13:29N 51°28' E 003°42'0 0.0
2018-May-22 11:25N 51°28' E 003°42'0 0.0
2018-May-22 10:49N 51°28' E 003°42'0 0.0
2018-May-22 06:28N 51°28' E 003°42'0 0.0
2018-May-22 03:13N 51°28' E 003°42'0 0.0
2018-May-22 02:55N 51°28' E 003°42'0 0.0
2018-May-22 02:10N 51°28' E 003°42'0 0.0
2018-May-22 01:55N 51°28' E 003°42'0 0.0
2018-May-22 01:22N 51°28' E 003°42'0 0.0
2018-May-22 00:55N 51°28' E 003°42'0 0.0
2018-May-22 00:16N 51°28' E 003°42'0 0.0
2018-May-21 23:58N 51°28' E 003°42'0 0.0
2018-May-21 23:22N 51°28' E 003°42'0 0.0
2018-May-21 22:07N 51°28' E 003°42'0 0.0
2018-May-21 12:49N 51°28' E 003°42'0 0.0
2018-May-21 12:28N 51°28' E 003°42'0 0.0
2018-May-21 09:46N 51°28' E 003°42'0 0.0
2018-May-21 04:40N 51°28' E 003°42'0 0.0
2018-May-21 01:58N 51°28' E 003°42'0 0.0
2018-May-20 23:22N 51°28' E 003°42'0 0.0
2018-May-20 21:01N 51°28' E 003°42'0 0.0
2018-May-20 20:43N 51°28' E 003°42'0 0.0
2018-May-20 19:13N 51°28' E 003°42'0 0.0
2018-May-20 02:40N 51°28' E 003°42'0 0.0
2018-May-20 02:28N 51°28' E 003°42'0 0.0
2018-May-19 22:58N 51°28' E 003°42'0 0.0
2018-May-19 17:04N 51°28' E 003°42'0 0.1
2018-May-19 16:40N 51°28' E 003°42'0 0.1
2018-May-19 16:04N 51°28' E 003°42'0 0.0
2018-May-19 15:46N 51°28' E 003°42'0 0.0
2018-May-19 15:07N 51°28' E 003°42'0 0.0
2018-May-19 14:58N 51°28' E 003°42'0 0.0
2018-May-19 14:28N 51°28' E 003°42'0 0.0
2018-May-19 13:55N 51°28' E 003°42'0 0.0
2018-May-19 13:22N 51°28' E 003°42'0 0.0
2018-May-19 12:52N 51°28' E 003°42'0 0.0
2018-May-19 12:22N 51°28' E 003°42'0 0.0
2018-May-19 11:58N 51°28' E 003°42'0 0.0
2018-May-19 11:22N 51°28' E 003°42'0 0.0
2018-May-19 10:46N 51°28' E 003°42'0 0.0
2018-May-19 10:22N 51°28' E 003°42'0 0.0
2018-May-19 09:49N 51°28' E 003°42'0 0.0
2018-May-19 09:22N 51°28' E 003°42'0 0.0
2018-May-19 08:55N 51°28' E 003°42'0 0.0
2018-May-19 08:22N 51°28' E 003°42'0 0.0
2018-May-19 07:58N 51°28' E 003°42'0 0.0
2018-May-19 07:22N 51°28' E 003°42'0 0.0
2018-May-19 06:55N 51°28' E 003°42'0 0.0
2018-May-19 06:04N 51°28' E 003°42'0 0.0
2018-May-19 05:58N 51°28' E 003°42'0 0.0
2018-May-19 05:25N 51°28' E 003°42'0 0.0
2018-May-19 04:43N 51°28' E 003°42'0 0.0
2018-May-19 03:34N 51°28' E 003°42'0 0.0
2018-May-19 03:07N 51°28' E 003°42'0 0.0
2018-May-19 02:16N 51°28' E 003°42'0 0.0
2018-May-19 01:55N 51°28' E 003°42'0 0.0
2018-May-19 01:16N 51°28' E 003°42'0 0.0
2018-May-19 00:55N 51°28' E 003°42'0 0.0
2018-May-19 00:28N 51°28' E 003°42'0 0.0
2018-May-18 23:55N 51°28' E 003°42'0 0.0
2018-May-18 23:28N 51°28' E 003°42'0 0.0
2018-May-18 22:55N 51°28' E 003°42'0 0.0
2018-May-18 22:28N 51°28' E 003°42'0 0.0
2018-May-18 21:52N 51°28' E 003°42'0 0.0
2018-May-18 21:28N 51°28' E 003°42'0 0.0
2018-May-18 20:55N 51°28' E 003°42'0 0.0
2018-May-18 20:25N 51°28' E 003°42'0 0.0
2018-May-18 19:58N 51°28' E 003°42'0 0.0
2018-May-18 19:25N 51°28' E 003°42'0 0.0
2018-May-18 18:58N 51°28' E 003°42'0 0.0
2018-May-18 18:25N 51°28' E 003°42'0 0.0
2018-May-18 17:58N 51°28' E 003°42'0 0.0
2018-May-18 17:25N 51°28' E 003°42'0 0.0
2018-May-18 16:55N 51°28' E 003°42'0 0.0
2018-May-18 16:25N 51°28' E 003°42'0 0.0
2018-May-18 15:55N 51°28' E 003°42'0 0.0
2018-May-18 15:28N 51°28' E 003°42'0 0.0
2018-May-18 14:31N 51°28' E 003°42'0 0.0
2018-May-18 14:25N 51°28' E 003°42'0 0.0
2018-May-18 13:37N 51°28' E 003°42'0 0.0
2018-May-18 13:22N 51°28' E 003°42'0 0.0
2018-May-18 12:46N 51°28' E 003°42'0 0.0
2018-May-18 12:28N 51°28' E 003°42'0 0.0
2018-May-18 11:43N 51°28' E 003°42'0 0.0
2018-May-18 11:28N 51°28' E 003°42'0 0.0
2018-May-18 10:55N 51°28' E 003°42'0 0.0
2018-May-18 10:25N 51°28' E 003°42'0 0.0
2018-May-18 09:52N 51°28' E 003°42'0 0.0
2018-May-18 09:16N 51°28' E 003°42'0 0.0
2018-May-18 08:58N 51°28' E 003°42'0 0.0
2018-May-18 08:25N 51°28' E 003°42'0 0.0
2018-May-18 07:58N 51°28' E 003°42'0 0.0
2018-May-18 07:28N 51°28' E 003°42'0 0.0
2018-May-18 06:55N 51°28' E 003°42'0 0.0
2018-May-18 06:28N 51°28' E 003°42'0 0.0
2018-May-18 05:55N 51°28' E 003°42'0 0.0
2018-May-18 05:22N 51°28' E 003°42'0 0.0
2018-May-18 04:58N 51°28' E 003°42'0 0.0
2018-May-18 04:28N 51°28' E 003°42'0 0.0
2018-May-18 03:58N 51°28' E 003°42'0 0.0
2018-May-18 03:28N 51°28' E 003°42'0 0.0
2018-May-18 02:55N 51°28' E 003°42'0 0.0
2018-May-18 02:28N 51°28' E 003°42'0 0.0
2018-May-18 01:49N 51°28' E 003°42'0 0.0
2018-May-18 01:28N 51°28' E 003°42'0 0.0
2018-May-18 00:58N 51°28' E 003°42'0 0.0
2018-May-18 00:28N 51°28' E 003°42'0 0.0
2018-May-17 23:58N 51°28' E 003°42'0 0.0
2018-May-17 23:28N 51°28' E 003°42'0 0.0
2018-May-17 22:58N 51°28' E 003°42'0 0.0
2018-May-17 22:28N 51°28' E 003°42'0 0.0
2018-May-17 21:58N 51°28' E 003°42'0 0.0
2018-May-17 21:28N 51°28' E 003°42'0 0.0
2018-May-17 20:58N 51°28' E 003°42'0 0.0
2018-May-17 20:28N 51°28' E 003°42'0 0.0
2018-May-17 19:58N 51°28' E 003°42'0 0.0
2018-May-17 19:28N 51°28' E 003°42'0 0.0
2018-May-17 18:55N 51°28' E 003°42'0 0.0
2018-May-17 18:28N 51°28' E 003°42'0 0.0
2018-May-17 17:58N 51°28' E 003°42'0 0.0
2018-May-17 17:28N 51°28' E 003°42'0 0.0
2018-May-17 16:52N 51°28' E 003°42'0 0.0
2018-May-17 16:28N 51°28' E 003°42'0 0.0
2018-May-17 15:52N 51°28' E 003°42'0 0.0
2018-May-17 15:22N 51°28' E 003°42'0 0.0
2018-May-17 14:55N 51°28' E 003°42'0 0.0
2018-May-17 14:25N 51°28' E 003°42'0 0.0
2018-May-17 13:52N 51°28' E 003°42'0 0.0
2018-May-17 13:22N 51°28' E 003°42'0 0.0
2018-May-17 12:58N 51°28' E 003°42'0 0.0
2018-May-17 12:10N 51°28' E 003°42'0 0.0
2018-May-17 11:55N 51°28' E 003°42'0 0.0
2018-May-17 11:25N 51°28' E 003°42'0 0.0
2018-May-17 10:58N 51°28' E 003°42'0 0.0
2018-May-17 10:28N 51°28' E 003°42'0 0.0
2018-May-17 09:52N 51°28' E 003°42'0 0.0
2018-May-17 09:28N 51°28' E 003°42'0 0.0
2018-May-17 08:58N 51°28' E 003°42'0 0.0
2018-May-17 08:28N 51°28' E 003°42'0 0.0
2018-May-17 07:58N 51°28' E 003°42'0 0.0
2018-May-17 07:28N 51°28' E 003°42'0 0.0
2018-May-17 06:55N 51°28' E 003°42'0 0.0
2018-May-17 06:28N 51°28' E 003°42'0 0.0
2018-May-17 05:52N 51°28' E 003°42'0 0.0
2018-May-17 05:25N 51°28' E 003°42'  

Dump ship's entire track history